createdAt,value
2022-07-27T00:01:32.408Z,65.55
2022-07-27T00:04:02.255Z,65.69
2022-07-27T00:06:32.230Z,65.45
2022-07-27T00:09:02.141Z,64.84
2022-07-27T00:11:31.841Z,65.40
2022-07-27T00:14:04.223Z,65.36
2022-07-27T00:16:34.182Z,65.84
2022-07-27T00:19:04.035Z,65.95
2022-07-27T00:21:33.993Z,65.73
2022-07-27T00:24:07.719Z,66.23
2022-07-27T00:26:37.579Z,66.53
2022-07-27T00:29:10.613Z,66.62
2022-07-27T00:31:40.685Z,66.67
2022-07-27T00:34:10.590Z,66.95
2022-07-27T00:36:40.321Z,66.71
2022-07-27T00:39:10.327Z,66.56
2022-07-27T00:41:40.282Z,66.69
2022-07-27T00:44:12.737Z,66.95
2022-07-27T00:46:42.578Z,66.88
2022-07-27T00:49:12.773Z,66.81
2022-07-27T00:51:42.834Z,67.15
2022-07-27T00:54:12.743Z,66.72
2022-07-27T00:56:43.162Z,66.86
2022-07-27T00:59:16.901Z,66.33
2022-07-27T01:01:46.875Z,66.99
2022-07-27T01:04:16.699Z,66.77
2022-07-27T01:06:46.534Z,67.03
2022-07-27T01:09:28.862Z,67.51
2022-07-27T01:11:58.679Z,67.56
2022-07-27T01:14:31.008Z,66.88
2022-07-27T01:17:00.778Z,67.52
2022-07-27T01:19:30.547Z,67.71
2022-07-27T01:22:02.902Z,67.76
2022-07-27T01:24:32.685Z,67.96
2022-07-27T01:27:03.173Z,67.86
2022-07-27T01:29:33.529Z,67.95
2022-07-27T01:32:04.629Z,67.45
2022-07-27T01:34:35.403Z,67.92
2022-07-27T01:37:08.187Z,67.63
2022-07-27T01:39:37.969Z,68.12
2022-07-27T01:42:07.923Z,68.12
2022-07-27T01:44:37.626Z,68.18
2022-07-27T01:47:14.507Z,68.37
2022-07-27T01:49:44.592Z,68.69
2022-07-27T01:52:16.805Z,68.57
2022-07-27T01:54:46.536Z,68.59
2022-07-27T01:57:16.247Z,68.53
2022-07-27T01:59:46.081Z,68.87
2022-07-27T02:02:16.406Z,68.67
2022-07-27T02:04:46.117Z,69.33
2022-07-27T02:07:19.211Z,69.00
2022-07-27T02:09:49.016Z,69.25
2022-07-27T02:12:31.154Z,69.42
2022-07-27T02:15:05.589Z,69.39
2022-07-27T02:17:36.691Z,69.44
2022-07-27T02:20:08.082Z,69.70
2022-07-27T02:22:40.522Z,69.95
2022-07-27T02:25:11.713Z,69.97
2022-07-27T02:27:41.888Z,69.91
2022-07-27T02:30:13.953Z,70.24
2022-07-27T02:32:44.655Z,70.28
2022-07-27T02:35:19.423Z,70.52
2022-07-27T02:37:52.677Z,70.80
2022-07-27T02:40:22.482Z,70.94
2022-07-27T02:42:52.198Z,71.57
2022-07-27T02:45:22.060Z,71.41
2022-07-27T02:47:51.879Z,71.12
2022-07-27T02:50:22.406Z,71.02
2022-07-27T02:52:54.777Z,70.70
2022-07-27T02:55:24.486Z,70.81
2022-07-27T02:57:54.204Z,71.27
2022-07-27T03:00:24.033Z,71.28
2022-07-27T03:02:54.016Z,70.85
2022-07-27T03:05:23.668Z,70.92
2022-07-27T03:07:56.188Z,71.29
2022-07-27T03:10:25.930Z,71.56
2022-07-27T03:12:55.808Z,71.60
2022-07-27T03:15:26.151Z,71.55
2022-07-27T03:17:57.017Z,71.49
2022-07-27T03:20:26.669Z,72.12
2022-07-27T03:22:59.110Z,71.92
2022-07-27T03:25:29.014Z,72.33
2022-07-27T03:28:03.856Z,71.81
2022-07-27T03:30:34.123Z,72.13
2022-07-27T03:33:03.980Z,72.37
2022-07-27T03:35:33.762Z,72.58
2022-07-27T03:38:06.476Z,72.40
2022-07-27T03:40:36.195Z,72.92
2022-07-27T03:43:06.033Z,73.15
2022-07-27T03:45:35.802Z,73.68
2022-07-27T03:48:05.942Z,73.91
2022-07-27T03:50:35.750Z,73.57
2022-07-27T03:53:08.020Z,73.36
2022-07-27T03:55:37.862Z,73.98
2022-07-27T03:58:07.479Z,73.86
2022-07-27T04:00:37.234Z,73.65
2022-07-27T04:03:07.074Z,73.30
2022-07-27T04:05:37.886Z,73.21
2022-07-27T04:08:10.205Z,73.83
2022-07-27T04:10:39.974Z,74.47
2022-07-27T04:13:09.655Z,74.71
2022-07-27T04:15:40.505Z,75.27
2022-07-27T04:18:10.185Z,75.12
2022-07-27T04:20:39.878Z,74.57
2022-07-27T04:23:12.161Z,73.99
2022-07-27T04:25:41.859Z,74.09
2022-07-27T04:28:11.635Z,73.71
2022-07-27T04:30:41.364Z,73.76
2022-07-27T04:33:11.140Z,73.80
2022-07-27T04:35:40.854Z,73.45
2022-07-27T04:38:13.173Z,73.19
2022-07-27T04:40:42.863Z,73.71
2022-07-27T04:43:12.546Z,73.71
2022-07-27T04:45:42.319Z,73.41
2022-07-27T04:48:12.424Z,73.23
2022-07-27T04:50:42.842Z,72.79
2022-07-27T04:53:16.460Z,72.87
2022-07-27T04:55:47.357Z,72.92
2022-07-27T04:58:17.887Z,72.64
2022-07-27T05:00:47.957Z,73.11
2022-07-27T05:03:17.720Z,72.67
2022-07-27T05:05:50.394Z,72.77
2022-07-27T05:08:23.098Z,72.62
2022-07-27T05:10:53.820Z,72.20
2022-07-27T05:13:23.570Z,71.79
2022-07-27T05:15:56.111Z,71.17
2022-07-27T05:18:26.052Z,71.13
2022-07-27T05:20:55.765Z,71.14
2022-07-27T05:23:29.105Z,70.61
2022-07-27T05:25:59.004Z,70.64
2022-07-27T05:28:28.962Z,70.54
2022-07-27T05:30:59.753Z,70.65
2022-07-27T05:33:29.612Z,70.55
2022-07-27T05:35:59.676Z,70.03
2022-07-27T05:38:39.125Z,69.90
2022-07-27T05:41:09.248Z,70.24
2022-07-27T05:43:39.393Z,69.82
2022-07-27T05:46:09.207Z,69.48
2022-07-27T05:48:39.058Z,69.50
2022-07-27T05:51:08.751Z,69.33
2022-07-27T05:53:41.192Z,68.98
2022-07-27T05:56:11.532Z,68.46
2022-07-27T05:58:41.221Z,68.49
2022-07-27T06:01:12.074Z,68.54
2022-07-27T06:03:42.961Z,68.73
2022-07-27T06:06:25.242Z,69.21
2022-07-27T06:08:57.617Z,68.74
2022-07-27T06:11:27.585Z,68.96
2022-07-27T06:14:00.342Z,68.22
2022-07-27T06:16:31.148Z,66.58
2022-07-27T06:19:00.907Z,66.80
2022-07-27T06:21:31.894Z,66.10
2022-07-27T06:24:04.174Z,63.99
2022-07-27T06:26:33.798Z,65.17
2022-07-27T06:29:03.609Z,65.00
2022-07-27T06:31:40.701Z,63.95
2022-07-27T06:34:12.392Z,64.32
2022-07-27T06:36:45.314Z,63.66
2022-07-27T06:39:17.617Z,63.33
2022-07-27T06:41:47.240Z,62.56
2022-07-27T06:44:16.957Z,62.57
2022-07-27T06:46:46.844Z,61.46
2022-07-27T06:49:17.555Z,60.52
2022-07-27T06:51:47.572Z,60.46
2022-07-27T06:54:19.918Z,59.98
2022-07-27T06:56:49.572Z,60.04
2022-07-27T06:59:19.310Z,60.68
2022-07-27T07:01:49.276Z,59.14
2022-07-27T07:04:23.133Z,58.56
2022-07-27T07:06:54.999Z,57.35
2022-07-27T07:09:27.205Z,56.17
2022-07-27T07:11:57.134Z,56.00
2022-07-27T07:14:27.237Z,56.33
2022-07-27T07:16:57.213Z,54.25
2022-07-27T07:19:26.838Z,54.44
2022-07-27T07:21:56.478Z,53.68
2022-07-27T07:24:30.109Z,53.61
2022-07-27T07:27:00.009Z,54.73
2022-07-27T07:29:29.719Z,52.60
2022-07-27T07:31:59.519Z,52.55
2022-07-27T07:34:29.679Z,51.97
2022-07-27T07:36:59.306Z,50.61
2022-07-27T07:39:31.824Z,51.25
2022-07-27T07:42:01.547Z,50.07
2022-07-27T07:44:31.429Z,50.37
2022-07-27T07:47:01.092Z,49.81
2022-07-27T07:49:37.728Z,48.76
2022-07-27T07:52:09.448Z,49.17
2022-07-27T07:54:41.721Z,48.51
2022-07-27T07:57:11.661Z,48.09
2022-07-27T07:59:41.333Z,47.61
2022-07-27T08:02:11.151Z,47.40
2022-07-27T08:04:40.871Z,48.15
2022-07-27T08:07:10.605Z,49.05
2022-07-27T08:09:42.906Z,48.00
2022-07-27T08:12:12.598Z,46.61
2022-07-27T08:14:42.302Z,46.13
2022-07-27T08:17:12.146Z,46.36
2022-07-27T08:19:41.867Z,47.25
2022-07-27T08:22:11.525Z,46.31
2022-07-27T08:24:43.800Z,45.41
2022-07-27T08:27:13.448Z,45.29
2022-07-27T08:29:43.098Z,43.83
2022-07-27T08:32:12.769Z,45.15
2022-07-27T08:34:42.562Z,46.13
2022-07-27T08:37:15.601Z,45.68
2022-07-27T08:42:38.116Z,45.40
2022-07-27T08:45:09.171Z,45.14
2022-07-27T08:47:41.772Z,43.69
2022-07-27T08:50:23.324Z,42.68
2022-07-27T08:53:03.908Z,42.95
2022-07-27T08:55:38.277Z,43.84
2022-07-27T08:58:09.272Z,45.19
2022-07-27T09:00:42.361Z,45.15
2022-07-27T09:03:19.162Z,46.55
2022-07-27T09:05:52.027Z,45.01
2022-07-27T09:08:24.692Z,43.30
2022-07-27T09:10:59.798Z,41.75
2022-07-27T09:13:31.300Z,41.45
2022-07-27T09:16:17.581Z,40.61
2022-07-27T09:18:49.536Z,40.77
2022-07-27T09:21:22.766Z,41.30
2022-07-27T09:23:54.632Z,40.91
2022-07-27T09:26:32.555Z,39.12
2022-07-27T09:29:05.924Z,40.88
2022-07-27T09:31:36.540Z,40.96
2022-07-27T09:34:06.363Z,42.18
2022-07-27T09:36:37.121Z,41.88
2022-07-27T09:39:08.508Z,41.29
2022-07-27T09:41:49.421Z,42.77
2022-07-27T09:44:42.207Z,44.25
2022-07-27T09:47:26.846Z,44.49
2022-07-27T09:49:58.323Z,44.20
2022-07-27T09:52:31.202Z,44.99
2022-07-27T09:55:07.297Z,44.20
2022-07-27T09:57:58.414Z,44.28
2022-07-27T10:00:29.585Z,44.72
2022-07-27T10:02:59.493Z,44.33
2022-07-27T10:05:29.266Z,43.95
2022-07-27T10:07:59.117Z,43.69
2022-07-27T10:10:28.839Z,44.87
2022-07-27T10:13:01.186Z,44.15
2022-07-27T10:15:31.121Z,43.11
2022-07-27T10:18:11.930Z,43.98
2022-07-27T10:20:47.512Z,43.78
2022-07-27T10:23:28.862Z,43.38
2022-07-27T10:26:20.833Z,43.40
2022-07-27T10:28:58.351Z,44.07
2022-07-27T10:31:30.763Z,43.85
2022-07-27T10:34:02.907Z,43.94
2022-07-27T10:36:50.875Z,43.69
2022-07-27T10:39:39.965Z,42.65
2022-07-27T10:42:31.851Z,41.81
2022-07-27T10:45:08.135Z,42.54
2022-07-27T10:47:44.737Z,42.72
2022-07-27T10:50:33.970Z,42.85
2022-07-27T10:53:07.237Z,42.17
2022-07-27T10:55:50.222Z,43.11
2022-07-27T10:58:51.393Z,42.16
2022-07-27T11:01:25.065Z,41.88
2022-07-27T11:03:58.091Z,43.35
2022-07-27T11:06:41.910Z,41.62
2022-07-27T11:10:02.869Z,42.58
2022-07-27T11:12:09.558Z,44.71
2022-07-27T11:14:47.980Z,44.61
2022-07-27T11:17:52.451Z,45.43
2022-07-27T11:20:13.423Z,45.58
2022-07-27T11:25:34.369Z,45.69
2022-07-27T11:28:08.955Z,44.54
2022-07-27T11:30:38.739Z,43.69
2022-07-27T11:33:11.119Z,43.17
2022-07-27T11:35:40.937Z,43.48
2022-07-27T11:38:11.377Z,42.30
2022-07-27T11:41:03.032Z,41.57
2022-07-27T11:43:43.318Z,40.90
2022-07-27T11:46:23.064Z,41.93
2022-07-27T11:49:07.578Z,41.09
2022-07-27T11:51:50.015Z,40.14
2022-07-27T11:54:22.441Z,40.76
2022-07-27T11:56:54.264Z,41.44
2022-07-27T11:59:25.553Z,41.86
2022-07-27T12:01:59.376Z,41.58
2022-07-27T12:04:34.134Z,41.51
2022-07-27T12:07:11.380Z,40.66
2022-07-27T12:09:45.874Z,38.89
2022-07-27T12:12:18.392Z,38.18
2022-07-27T12:14:52.070Z,37.72
2022-07-27T12:17:29.256Z,38.47
2022-07-27T12:20:04.211Z,37.36
2022-07-27T12:22:39.860Z,35.74
2022-07-27T12:25:16.448Z,35.44
2022-07-27T12:27:59.096Z,36.25
2022-07-27T12:30:37.501Z,35.46
2022-07-27T12:33:29.717Z,36.07
2022-07-27T12:36:04.288Z,34.80
2022-07-27T12:38:43.582Z,35.20
2022-07-27T12:41:25.458Z,35.53
2022-07-27T12:44:11.021Z,35.66
2022-07-27T12:46:54.922Z,36.51
2022-07-27T12:49:42.005Z,37.29
2022-07-27T12:52:18.265Z,38.71
2022-07-27T12:54:49.317Z,41.20
2022-07-27T12:57:39.808Z,41.84
2022-07-27T13:00:14.663Z,42.59
2022-07-27T13:02:46.951Z,42.85
2022-07-27T13:05:18.415Z,42.46
2022-07-27T13:07:53.456Z,41.43
2022-07-27T13:10:27.359Z,42.60
2022-07-27T13:12:57.524Z,42.43
2022-07-27T13:15:32.325Z,41.54
2022-07-27T13:18:02.499Z,41.37
2022-07-27T13:20:34.628Z,41.64
2022-07-27T13:23:09.909Z,42.15
2022-07-27T13:25:43.343Z,41.95
2022-07-27T13:28:14.589Z,42.55
2022-07-27T13:30:45.422Z,41.62
2022-07-27T13:33:16.176Z,42.43
2022-07-27T13:35:47.718Z,40.48
2022-07-27T13:38:32.831Z,40.32
2022-07-27T13:41:03.705Z,40.62
2022-07-27T13:43:34.487Z,41.35
2022-07-27T13:46:08.569Z,41.56
2022-07-27T13:48:38.426Z,40.71
2022-07-27T13:51:08.224Z,41.04
2022-07-27T13:53:40.680Z,40.52
2022-07-27T13:56:12.508Z,41.64
2022-07-27T13:58:42.709Z,40.42
2022-07-27T14:01:14.233Z,40.04
2022-07-27T14:03:45.021Z,39.91
2022-07-27T14:06:16.451Z,41.08
2022-07-27T14:08:49.471Z,41.62
2022-07-27T14:11:19.500Z,41.96
2022-07-27T14:13:49.482Z,41.52
2022-07-27T14:16:20.323Z,41.28
2022-07-27T14:18:51.290Z,41.18
2022-07-27T14:21:22.335Z,39.54
2022-07-27T14:23:55.773Z,40.61
2022-07-27T14:26:27.519Z,40.55
2022-07-27T14:28:58.296Z,39.62
2022-07-27T14:31:29.084Z,38.64
2022-07-27T14:33:59.864Z,37.82
2022-07-27T14:36:30.814Z,37.35
2022-07-27T14:39:04.115Z,37.68
2022-07-27T14:41:35.457Z,39.10
2022-07-27T14:44:07.801Z,40.87
2022-07-27T14:46:38.631Z,41.85
2022-07-27T14:49:10.435Z,41.89
2022-07-27T14:51:40.510Z,42.90
2022-07-27T14:54:14.011Z,42.42
2022-07-27T14:56:43.770Z,42.37
2022-07-27T14:59:14.805Z,42.75
2022-07-27T15:01:46.038Z,42.32
2022-07-27T15:04:18.165Z,42.12
2022-07-27T15:06:49.861Z,42.43
2022-07-27T15:09:23.214Z,43.10
2022-07-27T15:11:54.148Z,42.59
2022-07-27T15:14:25.372Z,43.20
2022-07-27T15:16:56.848Z,41.00
2022-07-27T15:19:27.681Z,41.78
2022-07-27T15:21:58.870Z,42.56
2022-07-27T15:24:37.915Z,43.52
2022-07-27T15:27:09.193Z,43.36
2022-07-27T15:29:39.181Z,43.43
2022-07-27T15:32:10.543Z,42.87
2022-07-27T15:34:42.359Z,43.27
2022-07-27T15:37:12.052Z,42.59
2022-07-27T15:39:45.424Z,42.75
2022-07-27T15:42:16.162Z,42.50
2022-07-27T15:44:46.889Z,42.81
2022-07-27T15:47:18.039Z,42.02
2022-07-27T15:49:48.773Z,41.98
2022-07-27T15:52:19.496Z,41.64
2022-07-27T15:54:52.812Z,41.73
2022-07-27T15:57:23.497Z,40.90
2022-07-27T15:59:53.207Z,41.28
2022-07-27T16:02:26.558Z,41.29
2022-07-27T16:04:56.753Z,41.45
2022-07-27T16:07:27.501Z,42.31
2022-07-27T16:10:13.606Z,40.69
2022-07-27T16:12:43.312Z,41.20
2022-07-27T16:15:14.956Z,41.58
2022-07-27T16:17:47.705Z,40.30
2022-07-27T16:20:18.269Z,41.56
2022-07-27T16:22:47.970Z,41.05
2022-07-27T16:25:30.581Z,41.07
2022-07-27T16:28:10.636Z,40.56
2022-07-27T16:30:40.286Z,40.97
2022-07-27T16:33:10.137Z,41.42
2022-07-27T16:35:42.955Z,41.63
2022-07-27T16:38:14.283Z,42.14
2022-07-27T16:40:47.641Z,42.33
2022-07-27T16:43:17.676Z,41.64
2022-07-27T16:45:48.449Z,41.76
2022-07-27T16:48:19.613Z,42.85
2022-07-27T16:50:50.492Z,42.68
2022-07-27T16:53:20.197Z,42.81
2022-07-27T16:55:52.660Z,43.04
2022-07-27T16:58:22.418Z,42.92
2022-07-27T17:00:52.959Z,43.03
2022-07-27T17:03:23.494Z,43.08
2022-07-27T17:05:53.203Z,43.00
2022-07-27T17:08:27.938Z,43.32
2022-07-27T17:11:02.344Z,43.51
2022-07-27T17:13:34.331Z,44.33
2022-07-27T17:16:04.681Z,44.16
2022-07-27T17:18:39.915Z,43.85
2022-07-27T17:21:12.885Z,44.67
2022-07-27T17:23:43.991Z,44.89
2022-07-27T17:26:16.629Z,45.93
2022-07-27T17:28:47.310Z,47.19
2022-07-27T17:31:18.837Z,47.44
2022-07-27T17:33:49.920Z,47.03
2022-07-27T17:36:19.699Z,47.00
2022-07-27T17:38:50.701Z,46.56
2022-07-27T17:41:25.249Z,47.81
2022-07-27T17:43:57.480Z,47.88
2022-07-27T17:46:27.902Z,48.33
2022-07-27T17:48:58.789Z,48.59
2022-07-27T17:51:28.526Z,48.23
2022-07-27T17:53:58.426Z,48.23
2022-07-27T17:56:30.746Z,48.10
2022-07-27T17:59:20.039Z,47.88
2022-07-27T18:01:51.304Z,47.79
2022-07-27T18:04:21.129Z,47.53
2022-07-27T18:06:50.966Z,47.55
2022-07-27T18:09:20.684Z,48.19
2022-07-27T18:11:52.958Z,47.81
2022-07-27T18:14:22.733Z,47.85
2022-07-27T18:16:52.510Z,48.09
2022-07-27T18:19:22.304Z,48.04
2022-07-27T18:21:52.317Z,48.37
2022-07-27T18:24:24.101Z,47.95
2022-07-27T18:26:59.514Z,47.95
2022-07-27T18:29:29.211Z,48.45
2022-07-27T18:31:58.944Z,48.66
2022-07-27T18:34:28.762Z,49.20
2022-07-27T18:36:58.434Z,48.41
2022-07-27T18:39:33.678Z,49.15
2022-07-27T18:42:06.785Z,49.25
2022-07-27T18:44:38.987Z,49.15
2022-07-27T18:47:09.194Z,49.67
2022-07-27T18:49:39.137Z,49.88
2022-07-27T18:52:09.542Z,49.70
2022-07-27T18:54:39.306Z,49.67
2022-07-27T18:57:12.750Z,49.82
2022-07-27T18:59:42.536Z,49.54
2022-07-27T19:02:12.277Z,49.62
2022-07-27T19:04:43.041Z,49.42
2022-07-27T19:07:15.566Z,49.86
2022-07-27T19:09:45.822Z,49.50
2022-07-27T19:12:18.243Z,49.59
2022-07-27T19:14:51.104Z,50.01
2022-07-27T19:17:21.813Z,49.98
2022-07-27T19:19:51.582Z,50.12
2022-07-27T19:22:21.393Z,49.87
2022-07-27T19:24:54.960Z,50.06
2022-07-27T19:27:27.995Z,50.46
2022-07-27T19:29:58.762Z,50.76
2022-07-27T19:32:29.062Z,50.24
2022-07-27T19:34:58.857Z,51.17
2022-07-27T19:37:31.081Z,50.14
2022-07-27T19:40:20.327Z,50.84
2022-07-27T19:42:55.238Z,51.44
2022-07-27T19:45:24.978Z,51.89
2022-07-27T19:47:54.752Z,52.03
2022-07-27T19:50:29.317Z,53.03
2022-07-27T19:52:59.162Z,53.30
2022-07-27T19:55:30.077Z,53.62
2022-07-27T19:58:02.442Z,53.35
2022-07-27T20:00:32.324Z,53.66
2022-07-27T20:03:03.341Z,53.73
2022-07-27T20:05:33.672Z,53.84
2022-07-27T20:08:04.626Z,53.89
2022-07-27T20:10:34.346Z,54.23
2022-07-27T20:13:07.099Z,54.29
2022-07-27T20:15:37.295Z,54.13
2022-07-27T20:18:07.753Z,53.99
2022-07-27T20:20:38.563Z,54.45
2022-07-27T20:23:08.422Z,54.37
2022-07-27T20:25:38.419Z,54.50
2022-07-27T20:28:10.854Z,54.14
2022-07-27T20:30:40.828Z,54.72
2022-07-27T20:33:11.223Z,54.94
2022-07-27T20:35:40.938Z,55.26
2022-07-27T20:38:10.704Z,55.37
2022-07-27T20:40:40.537Z,55.23
2022-07-27T20:43:13.865Z,55.67
2022-07-27T20:45:43.837Z,55.63
2022-07-27T20:48:13.624Z,55.95
2022-07-27T20:50:44.311Z,55.38
2022-07-27T20:53:15.081Z,54.90
2022-07-27T20:55:45.955Z,55.48
2022-07-27T20:58:19.389Z,55.51
2022-07-27T21:00:49.161Z,55.95
2022-07-27T21:03:20.034Z,56.48
2022-07-27T21:05:49.694Z,56.89
2022-07-27T21:08:20.382Z,56.65
2022-07-27T21:10:50.030Z,57.53
2022-07-27T21:13:22.754Z,57.78
2022-07-27T21:15:52.715Z,58.00
2022-07-27T21:18:22.344Z,58.50
2022-07-27T21:20:54.729Z,58.43
2022-07-27T21:23:37.089Z,58.51
2022-07-27T21:26:06.777Z,58.84
2022-07-27T21:28:40.381Z,59.36
2022-07-27T21:31:11.771Z,59.65
2022-07-27T21:33:41.563Z,59.95
2022-07-27T21:36:11.279Z,60.16
2022-07-27T21:38:40.929Z,60.54
2022-07-27T21:41:10.755Z,60.64
2022-07-27T21:43:43.643Z,61.03
2022-07-27T21:46:13.819Z,61.43
2022-07-27T21:48:43.708Z,61.24
2022-07-27T21:51:15.604Z,61.87
2022-07-27T21:53:45.460Z,62.49
2022-07-27T21:56:15.482Z,62.25
2022-07-27T21:58:49.051Z,61.94
2022-07-27T22:01:19.527Z,62.17
2022-07-27T22:03:49.957Z,62.31
2022-07-27T22:06:20.349Z,62.44
2022-07-27T22:08:50.030Z,62.28
2022-07-27T22:11:19.774Z,62.21
2022-07-27T22:13:51.994Z,62.00
2022-07-27T22:16:21.681Z,61.82
2022-07-27T22:18:51.349Z,61.27
2022-07-27T22:21:21.594Z,61.27
2022-07-27T22:23:51.374Z,61.02
2022-07-27T22:26:21.079Z,61.28
2022-07-27T22:28:53.321Z,61.16
2022-07-27T22:31:23.502Z,61.76
2022-07-27T22:33:54.090Z,61.94
2022-07-27T22:36:23.762Z,62.50
2022-07-27T22:38:53.400Z,62.31
2022-07-27T22:41:23.127Z,62.61
2022-07-27T22:43:55.330Z,62.50
2022-07-27T22:46:25.960Z,63.66
2022-07-27T22:48:55.810Z,63.17
2022-07-27T22:51:25.571Z,63.34
2022-07-27T22:54:15.785Z,63.50
2022-07-27T22:56:45.915Z,63.52
2022-07-27T22:59:18.116Z,63.58
2022-07-27T23:01:48.515Z,63.64
2022-07-27T23:04:19.153Z,64.04
2022-07-27T23:06:49.521Z,64.10
2022-07-27T23:09:20.134Z,64.37
2022-07-27T23:11:49.801Z,64.48
2022-07-27T23:14:25.840Z,64.75
2022-07-27T23:16:55.901Z,65.08
2022-07-27T23:19:25.567Z,65.46
2022-07-27T23:22:01.139Z,65.34
2022-07-27T23:24:32.106Z,65.81
2022-07-27T23:27:03.860Z,66.34
2022-07-27T23:29:36.118Z,66.42
2022-07-27T23:32:08.381Z,66.87
2022-07-27T23:34:38.789Z,66.77
2022-07-27T23:37:08.439Z,66.43
2022-07-27T23:39:38.064Z,66.43
2022-07-27T23:42:07.744Z,66.39
2022-07-27T23:44:39.963Z,66.32
2022-07-27T23:47:09.869Z,66.34
2022-07-27T23:49:42.990Z,66.57
2022-07-27T23:52:12.637Z,67.05
2022-07-27T23:54:42.292Z,66.79
2022-07-27T23:57:11.978Z,66.80
2022-07-27T23:59:44.247Z,66.90
